createdAt,value
2022-12-06T00:00:10.834Z,2.30
2022-12-06T00:04:14.124Z,2.30
2022-12-06T00:08:15.760Z,2.20
2022-12-06T00:12:17.319Z,2.30
2022-12-06T00:16:18.983Z,2.30
2022-12-06T00:20:20.580Z,2.30
2022-12-06T00:24:22.614Z,2.40
2022-12-06T00:28:24.209Z,2.30
2022-12-06T00:32:25.783Z,2.30
2022-12-06T00:36:28.590Z,2.40
2022-12-06T00:40:30.173Z,2.40
2022-12-06T00:44:31.717Z,2.50
2022-12-06T00:48:33.341Z,2.40
2022-12-06T00:52:34.941Z,2.40
2022-12-06T00:56:37.209Z,2.50
2022-12-06T01:00:38.992Z,2.40
2022-12-06T01:04:40.641Z,2.40
2022-12-06T01:08:43.139Z,2.50
2022-12-06T01:12:44.690Z,2.50
2022-12-06T01:16:46.354Z,2.50
2022-12-06T01:20:48.309Z,2.30
2022-12-06T01:24:49.878Z,2.40
2022-12-06T01:28:51.817Z,2.40
2022-12-06T01:32:53.414Z,2.40
2022-12-06T01:36:54.975Z,2.40
2022-12-06T01:40:56.589Z,2.40
2022-12-06T01:44:59.308Z,2.30
2022-12-06T01:49:07.431Z,2.50
2022-12-06T01:53:09.590Z,2.40
2022-12-06T01:57:13.242Z,2.50
2022-12-06T02:01:15.691Z,2.40
2022-12-06T02:05:17.801Z,2.30
2022-12-06T02:09:20.023Z,2.40
2022-12-06T02:13:22.296Z,2.40
2022-12-06T02:17:33.314Z,2.30
2022-12-06T02:21:50.028Z,2.30
2022-12-06T02:25:58.169Z,2.30
2022-12-06T02:30:18.081Z,2.40
2022-12-06T02:34:27.507Z,2.40
2022-12-06T02:38:29.047Z,2.40
2022-12-06T02:42:36.642Z,2.40
2022-12-06T02:46:39.177Z,2.50
2022-12-06T02:50:43.037Z,2.40
2022-12-06T02:54:46.203Z,2.50
2022-12-06T02:58:47.792Z,2.50
2022-12-06T03:02:49.622Z,2.50
2022-12-06T03:06:58.124Z,2.50
2022-12-06T03:11:01.692Z,2.40
2022-12-06T03:15:18.643Z,2.40
2022-12-06T03:19:21.535Z,2.40
2022-12-06T03:23:30.177Z,2.50
2022-12-06T03:27:31.942Z,2.50
2022-12-06T03:31:36.175Z,2.50
2022-12-06T03:35:38.266Z,2.50
2022-12-06T03:39:48.360Z,2.50
2022-12-06T03:43:49.910Z,2.50
2022-12-06T03:48:04.999Z,2.50
2022-12-06T03:52:06.525Z,2.40
2022-12-06T03:56:08.057Z,2.50
2022-12-06T04:00:10.648Z,2.50
2022-12-06T04:04:12.387Z,2.50
2022-12-06T04:08:14.034Z,2.50
2022-12-06T04:12:34.353Z,2.60
2022-12-06T04:16:54.271Z,2.60
2022-12-06T04:21:17.957Z,2.50
2022-12-06T04:25:19.551Z,2.40
2022-12-06T04:29:40.517Z,2.50
2022-12-06T04:34:00.884Z,2.60
2022-12-06T04:38:20.798Z,2.50
2022-12-06T04:42:41.009Z,2.50
2022-12-06T04:46:42.746Z,2.60
2022-12-06T04:50:50.676Z,2.60
2022-12-06T04:54:52.180Z,2.60
2022-12-06T04:58:53.840Z,2.60
2022-12-06T05:02:55.415Z,2.50
2022-12-06T05:06:56.981Z,2.60
2022-12-06T05:10:58.556Z,2.60
2022-12-06T05:15:00.120Z,2.60
2022-12-06T05:19:01.783Z,2.60
2022-12-06T05:23:03.329Z,2.60
2022-12-06T05:27:04.887Z,2.60
2022-12-06T05:31:06.465Z,2.50
2022-12-06T05:35:08.521Z,2.60
2022-12-06T05:39:10.038Z,2.60
2022-12-06T05:43:12.008Z,2.50
2022-12-06T05:47:13.534Z,2.50
2022-12-06T05:51:15.144Z,2.60
2022-12-06T05:55:16.692Z,2.50
2022-12-06T05:59:18.401Z,2.60
2022-12-06T06:03:20.070Z,2.60
2022-12-06T06:07:21.654Z,2.60
2022-12-06T06:11:23.366Z,2.60
2022-12-06T06:15:24.983Z,2.60
2022-12-06T06:19:26.602Z,2.60
2022-12-06T06:23:28.323Z,2.60
2022-12-06T06:27:32.164Z,2.50
2022-12-06T06:31:34.502Z,2.60
2022-12-06T06:35:36.191Z,2.60
2022-12-06T06:39:37.798Z,2.60
2022-12-06T06:43:39.472Z,2.60
2022-12-06T06:47:41.144Z,2.60
2022-12-06T06:51:42.762Z,2.50
2022-12-06T06:55:44.741Z,2.60
2022-12-06T06:59:46.734Z,2.50
2022-12-06T07:03:48.590Z,2.50
2022-12-06T07:07:50.469Z,2.60
2022-12-06T07:11:53.386Z,2.60
2022-12-06T07:15:55.270Z,2.60
2022-12-06T07:19:56.853Z,2.70
2022-12-06T07:23:59.796Z,2.70
2022-12-06T07:28:01.383Z,2.70
2022-12-06T07:32:02.998Z,2.60
2022-12-06T07:36:13.705Z,2.70
2022-12-06T07:40:16.354Z,2.70
2022-12-06T07:44:36.908Z,2.60
2022-12-06T07:48:41.038Z,2.60
2022-12-06T07:52:42.944Z,2.70
2022-12-06T07:56:44.557Z,2.80
2022-12-06T08:00:46.292Z,2.70
2022-12-06T08:04:50.619Z,2.70
2022-12-06T08:08:52.301Z,2.70
2022-12-06T08:12:53.940Z,2.80
2022-12-06T08:16:55.578Z,2.70
2022-12-06T08:20:58.055Z,2.80
2022-12-06T08:25:08.821Z,2.70
2022-12-06T08:29:10.707Z,2.80
2022-12-06T08:33:15.132Z,2.70
2022-12-06T08:37:16.882Z,2.70
2022-12-06T08:41:38.065Z,2.80
2022-12-06T08:45:52.640Z,2.80
2022-12-06T08:49:54.589Z,2.70
2022-12-06T08:53:56.522Z,2.90
2022-12-06T08:57:58.830Z,2.80
2022-12-06T09:02:00.684Z,2.90
2022-12-06T09:06:05.332Z,2.90
2022-12-06T09:10:07.332Z,2.90
2022-12-06T09:14:09.392Z,2.90
2022-12-06T09:18:11.035Z,3.00
2022-12-06T09:22:12.680Z,2.90
2022-12-06T09:26:14.433Z,3.00
2022-12-06T09:30:16.201Z,3.00
2022-12-06T09:34:17.764Z,3.10
2022-12-06T09:38:24.260Z,3.00
2022-12-06T09:42:25.777Z,3.00
2022-12-06T09:46:33.644Z,3.00
2022-12-06T09:50:50.408Z,3.00
2022-12-06T09:55:01.142Z,3.00
2022-12-06T09:59:26.045Z,3.00
2022-12-06T10:03:30.679Z,3.00
2022-12-06T10:07:38.913Z,3.00
2022-12-06T10:11:44.234Z,3.10
2022-12-06T10:16:15.509Z,3.10
2022-12-06T10:20:31.639Z,3.00
2022-12-06T10:24:39.287Z,3.10
2022-12-06T10:28:45.687Z,3.10
2022-12-06T10:32:57.189Z,3.10
2022-12-06T10:37:17.568Z,3.10
2022-12-06T10:41:32.867Z,3.10
2022-12-06T10:46:03.067Z,3.20
2022-12-06T10:50:07.648Z,3.20
2022-12-06T10:54:13.064Z,3.20
2022-12-06T10:58:27.363Z,3.10
2022-12-06T11:02:39.080Z,3.30
2022-12-06T11:06:50.009Z,3.30
2022-12-06T11:10:56.039Z,3.20
2022-12-06T11:15:01.759Z,3.20
2022-12-06T11:19:26.588Z,3.30
2022-12-06T11:23:48.352Z,3.20
2022-12-06T11:27:54.119Z,3.30
2022-12-06T11:31:57.539Z,3.30
2022-12-06T11:36:01.705Z,3.10
2022-12-06T11:40:06.538Z,3.30
2022-12-06T11:44:12.705Z,3.40
2022-12-06T11:48:18.643Z,3.40
2022-12-06T11:52:20.315Z,3.30
2022-12-06T11:56:23.231Z,3.50
2022-12-06T12:00:25.574Z,3.60
2022-12-06T12:04:35.611Z,3.60
2022-12-06T12:08:37.732Z,3.60
2022-12-06T12:13:08.458Z,3.50
2022-12-06T12:17:20.457Z,3.60
2022-12-06T12:21:33.401Z,3.70
2022-12-06T12:25:36.435Z,3.80
2022-12-06T12:29:38.173Z,3.60
2022-12-06T12:33:39.842Z,3.50
2022-12-06T12:37:41.591Z,3.60
2022-12-06T12:41:43.932Z,3.70
2022-12-06T12:46:03.764Z,3.60
2022-12-06T12:50:14.423Z,3.70
2022-12-06T12:54:19.438Z,3.80
2022-12-06T12:58:21.022Z,3.50
2022-12-06T13:02:30.549Z,3.60
2022-12-06T13:06:32.575Z,3.80
2022-12-06T13:10:35.212Z,3.70
2022-12-06T13:14:37.450Z,3.70
2022-12-06T13:18:42.900Z,3.70
2022-12-06T13:22:47.074Z,3.70
2022-12-06T13:26:51.985Z,3.70
2022-12-06T13:30:56.128Z,3.90
2022-12-06T13:35:01.931Z,3.80
2022-12-06T13:39:22.238Z,4.00
2022-12-06T13:43:23.766Z,3.90
2022-12-06T13:47:28.289Z,3.80
2022-12-06T13:51:34.283Z,3.90
2022-12-06T13:55:35.804Z,3.90
2022-12-06T13:59:38.129Z,3.90
2022-12-06T14:03:40.453Z,3.80
2022-12-06T14:07:42.745Z,3.90
2022-12-06T14:11:44.638Z,3.90
2022-12-06T14:15:47.002Z,3.80
2022-12-06T14:19:49.780Z,4.00
2022-12-06T14:23:51.625Z,4.00
2022-12-06T14:28:02.718Z,3.90
2022-12-06T14:32:04.498Z,3.90
2022-12-06T14:36:07.169Z,3.90
2022-12-06T14:40:52.367Z,3.90
2022-12-06T14:45:00.507Z,3.90
2022-12-06T14:49:22.628Z,3.80
2022-12-06T14:53:30.265Z,3.90
2022-12-06T14:57:32.003Z,3.80
2022-12-06T15:01:33.643Z,3.70
2022-12-06T15:05:35.986Z,3.60
2022-12-06T15:09:44.961Z,3.60
2022-12-06T15:14:06.624Z,3.70
2022-12-06T15:18:17.442Z,3.70
2022-12-06T15:22:25.487Z,3.40
2022-12-06T15:26:27.556Z,3.40
2022-12-06T15:30:29.171Z,3.40
2022-12-06T15:34:32.247Z,3.40
2022-12-06T15:38:33.850Z,3.30
2022-12-06T15:42:35.998Z,3.40
2022-12-06T15:46:37.719Z,3.40
2022-12-06T15:50:39.396Z,3.40
2022-12-06T15:54:41.028Z,3.40
2022-12-06T15:58:43.106Z,3.40
2022-12-06T16:02:44.966Z,3.50
2022-12-06T16:06:46.554Z,3.40
2022-12-06T16:11:11.265Z,3.30
2022-12-06T16:15:09.927Z,3.40
2022-12-06T16:19:11.559Z,3.30
2022-12-06T16:23:49.826Z,3.40
2022-12-06T16:27:54.484Z,3.40
2022-12-06T16:31:56.134Z,3.40
2022-12-06T16:36:16.544Z,3.40
2022-12-06T16:40:22.559Z,3.40
2022-12-06T16:44:24.360Z,3.40
2022-12-06T16:48:27.192Z,3.40
2022-12-06T16:52:28.789Z,3.50
2022-12-06T16:56:31.341Z,3.40
2022-12-06T17:00:33.086Z,3.50
2022-12-06T17:04:34.689Z,3.50
2022-12-06T17:08:36.358Z,3.40
2022-12-06T17:12:38.968Z,3.40
2022-12-06T17:16:41.200Z,3.30
2022-12-06T17:20:42.892Z,3.20
2022-12-06T17:24:46.549Z,3.30
2022-12-06T17:28:48.236Z,3.30
2022-12-06T17:32:49.791Z,3.30
2022-12-06T17:36:51.598Z,3.20
2022-12-06T17:40:53.201Z,3.30
2022-12-06T17:44:54.804Z,3.40
2022-12-06T17:48:56.815Z,3.40
2022-12-06T17:52:58.315Z,3.40
2022-12-06T17:56:59.993Z,3.50
2022-12-06T18:01:01.572Z,3.50
2022-12-06T18:05:03.718Z,3.50
2022-12-06T18:09:06.694Z,3.50
2022-12-06T18:13:10.205Z,3.50
2022-12-06T18:17:11.892Z,3.50
2022-12-06T18:21:14.050Z,3.50
2022-12-06T18:25:15.668Z,3.50
2022-12-06T18:29:18.875Z,3.50
2022-12-06T18:33:22.595Z,3.50
2022-12-06T18:37:25.971Z,3.50
2022-12-06T18:41:29.054Z,3.60
2022-12-06T18:45:30.719Z,3.60
2022-12-06T18:49:32.381Z,3.50
2022-12-06T18:53:35.165Z,3.60
2022-12-06T18:57:39.730Z,3.50
2022-12-06T19:01:41.556Z,3.50
2022-12-06T19:06:01.936Z,3.50
2022-12-06T19:10:04.826Z,3.50
2022-12-06T19:14:06.889Z,3.50
2022-12-06T19:18:12.994Z,3.60
2022-12-06T19:22:14.570Z,3.60
2022-12-06T19:26:16.417Z,3.50
2022-12-06T19:30:18.215Z,3.50
2022-12-06T19:34:19.696Z,3.50
2022-12-06T19:38:21.277Z,3.50
2022-12-06T19:42:41.538Z,3.50
2022-12-06T19:46:44.475Z,3.60
2022-12-06T19:50:46.049Z,3.60
2022-12-06T19:54:47.643Z,3.60
2022-12-06T19:58:49.207Z,3.60
2022-12-06T20:02:50.802Z,3.60
2022-12-06T20:06:52.905Z,3.60
2022-12-06T20:10:54.480Z,3.50
2022-12-06T20:14:56.040Z,3.50
2022-12-06T20:18:58.149Z,3.50
2022-12-06T20:22:59.680Z,3.50
2022-12-06T20:27:01.497Z,3.50
2022-12-06T20:31:09.045Z,3.60
2022-12-06T20:35:10.850Z,3.60
2022-12-06T20:39:18.933Z,3.60
2022-12-06T20:43:20.506Z,3.50
2022-12-06T20:47:22.258Z,3.60
2022-12-06T20:51:25.195Z,3.50
2022-12-06T20:55:26.776Z,3.60
2022-12-06T20:59:29.307Z,3.60
2022-12-06T21:03:34.313Z,3.60
2022-12-06T21:07:36.772Z,3.60
2022-12-06T21:11:38.758Z,3.60
2022-12-06T21:15:40.376Z,3.60
2022-12-06T21:19:42.594Z,3.60
2022-12-06T21:23:44.241Z,3.70
2022-12-06T21:27:45.848Z,3.70
2022-12-06T21:31:47.614Z,3.70
2022-12-06T21:35:49.518Z,3.70
2022-12-06T21:39:51.122Z,3.70
2022-12-06T21:43:52.833Z,3.60
2022-12-06T21:47:55.143Z,3.70
2022-12-06T21:52:03.186Z,3.70
2022-12-06T21:56:08.919Z,3.70
2022-12-06T22:00:10.704Z,3.70
2022-12-06T22:04:12.311Z,3.80
2022-12-06T22:08:14.010Z,3.80
2022-12-06T22:12:15.729Z,3.80
2022-12-06T22:16:17.591Z,3.80
2022-12-06T22:20:19.207Z,3.80
2022-12-06T22:24:21.018Z,3.80
2022-12-06T22:28:22.961Z,3.80
2022-12-06T22:32:24.527Z,3.80
2022-12-06T22:36:26.727Z,3.90
2022-12-06T22:40:28.307Z,3.90
2022-12-06T22:44:29.905Z,3.90
2022-12-06T22:48:31.763Z,4.00
2022-12-06T22:52:33.357Z,4.00
2022-12-06T22:56:35.184Z,4.00
2022-12-06T23:00:36.854Z,4.00
2022-12-06T23:04:38.452Z,4.10
2022-12-06T23:08:40.452Z,4.10
2022-12-06T23:12:42.190Z,4.10
2022-12-06T23:16:45.129Z,4.10
2022-12-06T23:20:46.788Z,4.20
2022-12-06T23:24:48.908Z,4.10
2022-12-06T23:28:50.929Z,4.20
2022-12-06T23:32:52.505Z,4.10
2022-12-06T23:36:54.083Z,4.10
2022-12-06T23:40:55.577Z,4.10
2022-12-06T23:44:57.110Z,4.00
2022-12-06T23:48:58.970Z,4.00
2022-12-06T23:53:00.664Z,4.10
2022-12-06T23:57:02.231Z,4.00
